Time;durP1;ratioP1;P1;durP2;ratioP2;P2;SDS_P1;SDS_P2;PMS_P1;PMS_P2;Temp;Humidity;BMP_temperature;BMP_pressure;BME280_temperature;BME280_humidity;BME280_pressure;Samples;Min_cycle;Max_cycle;Signal;HPM_P1;HPM_P2
2021/12/28 00:01:27;;;;;;;4.32;2.40;;;12.70;99.90;;;;;;5012172;28;20029;-74
2021/12/28 00:03:53;;;;;;;0.63;0.63;;;12.70;99.90;;;;;;5010820;28;20033;-75
2021/12/28 00:06:19;;;;;;;2.17;1.38;;;12.70;99.90;;;;;;5015017;28;20056;-75
2021/12/28 00:08:45;;;;;;;0.65;0.65;;;12.60;99.90;;;;;;5015801;28;20404;-77
2021/12/28 00:11:12;;;;;;;0.20;0.20;;;12.70;99.90;;;;;;5015945;28;20504;-75
2021/12/28 00:13:39;;;;;;;34.80;3.83;;;12.70;99.90;;;;;;5015590;28;20026;-75
2021/12/28 00:18:32;;;;;;;0.10;0.10;;;12.70;99.90;;;;;;5016030;28;20030;-75
2021/12/28 00:21:00;;;;;;;0.63;0.40;;;12.70;99.90;;;;;;5015717;28;20018;-74
2021/12/28 00:23:32;;;;;;;3.70;1.92;;;12.70;99.90;;;;;;5015472;28;20432;-76
2021/12/28 00:25:59;;;;;;;7.40;1.95;;;12.70;99.90;;;;;;5015426;28;20075;-75
2021/12/28 00:28:25;;;;;;;0.93;0.35;;;12.70;99.90;;;;;;5015364;28;20529;-76
2021/12/28 00:30:52;;;;;;;0.10;0.10;;;12.70;99.90;;;;;;5015680;28;20033;-75
2021/12/28 00:33:20;;;;;;;8.52;1.92;;;12.80;99.90;;;;;;5015407;28;20026;-75
2021/12/28 00:35:46;;;;;;;2.30;1.13;;;12.80;99.90;;;;;;5015217;28;20050;-75
2021/12/28 00:38:19;;;;;;;0.20;0.20;;;12.90;99.90;;;;;;5015275;28;20041;-75
2021/12/28 00:40:49;;;;;;;1.50;0.90;;;12.90;99.90;;;;;;5015109;28;20044;-75
2021/12/28 00:43:15;;;;;;;0.15;0.15;;;13.00;99.90;;;;;;5002495;28;20345;-75
2021/12/28 00:45:41;;;;;;;0.47;0.47;;;13.10;99.90;;;;;;4995630;28;20054;-74
2021/12/28 00:48:07;;;;;;;0.00;0.00;;;13.10;99.90;;;;;;5007806;28;20434;-75
2021/12/28 00:50:33;;;;;;;3.25;0.60;;;13.10;99.90;;;;;;5013278;28;20175;-76
2021/12/28 00:52:58;;;;;;;0.40;0.40;;;13.10;99.90;;;;;;5013451;28;20108;-75
2021/12/28 00:55:26;;;;;;;3.20;2.00;;;13.00;99.90;;;;;;5015016;28;20481;-75
2021/12/28 00:57:52;;;;;;;0.30;0.30;;;13.00;99.90;;;;;;5014898;28;20018;-74
2021/12/28 01:00:25;;;;;;;0.70;0.70;;;13.00;99.90;;;;;;5013911;28;20072;-74
2021/12/28 01:02:53;;;;;;;0.15;0.15;;;12.90;99.90;;;;;;5015002;28;20025;-74
2021/12/28 01:05:20;;;;;;;1.98;1.77;;;13.00;99.90;;;;;;5014530;28;20080;-74
2021/12/28 01:07:46;;;;;;;0.00;0.00;;;13.00;99.90;;;;;;5013586;28;20022;-77
2021/12/28 01:10:20;;;;;;;2.00;1.27;;;12.90;99.90;;;;;;5014502;28;20084;-74
2021/12/28 01:12:46;;;;;;;2.88;1.25;;;12.80;99.90;;;;;;5013314;28;20028;-77
2021/12/28 01:15:13;;;;;;;0.50;0.50;;;12.90;99.90;;;;;;5014844;28;20113;-78
2021/12/28 01:17:39;;;;;;;4.93;1.55;;;12.80;99.90;;;;;;5013068;28;20026;-77
2021/12/28 01:20:07;;;;;;;2.55;1.85;;;12.80;99.90;;;;;;5014227;28;20033;-76
2021/12/28 01:22:34;;;;;;;1.98;1.23;;;12.80;99.90;;;;;;5014459;28;20080;-75
2021/12/28 01:25:00;;;;;;;1.95;0.65;;;12.90;99.90;;;;;;5014507;28;20471;-75
2021/12/28 01:27:25;;;;;;;3.38;1.90;;;12.90;99.90;;;;;;5012857;28;20046;-76
2021/12/28 01:29:51;;;;;;;0.00;0.00;;;12.90;99.90;;;;;;5014391;28;20088;-76
2021/12/28 01:32:17;;;;;;;1.27;0.57;;;12.90;99.90;;;;;;5014203;28;20036;-76
2021/12/28 01:34:46;;;;;;;0.20;0.20;;;12.80;99.90;;;;;;5014334;28;20105;-77
2021/12/28 01:37:12;;;;;;;0.43;0.30;;;12.70;99.90;;;;;;5014330;28;20022;-76
2021/12/28 01:39:38;;;;;;;12.35;2.72;;;12.70;99.90;;;;;;5014189;28;20026;-78
2021/12/28 01:42:06;;;;;;;2.28;1.27;;;12.80;99.90;;;;;;5010836;28;20443;-76
2021/12/28 01:44:33;;;;;;;4.35;1.45;;;12.90;99.90;;;;;;4994622;28;20061;-76
2021/12/28 01:46:59;;;;;;;15.93;3.13;;;12.90;99.90;;;;;;4998070;28;20018;-76
2021/12/28 01:49:25;;;;;;;1.42;1.42;;;13.00;99.90;;;;;;5013404;28;20378;-76
2021/12/28 01:51:51;;;;;;;0.45;0.45;;;13.00;99.90;;;;;;5013634;28;20026;-76
2021/12/28 01:54:17;;;;;;;1.08;0.82;;;13.20;99.90;;;;;;5012233;28;20032;-76
2021/12/28 01:56:44;;;;;;;0.00;0.00;;;13.20;99.90;;;;;;5014127;28;20026;-75
2021/12/28 01:59:16;;;;;;;23.10;0.85;;;13.30;99.90;;;;;;5014057;28;20026;-75
2021/12/28 02:01:43;;;;;;;1.45;1.33;;;13.20;99.90;;;;;;5012927;28;20021;-75
2021/12/28 02:04:26;;;;;;;2.25;2.08;;;13.10;99.90;;;;;;5013611;28;20396;-76
2021/12/28 02:06:57;;;;;;;1.50;1.40;;;13.00;99.90;;;;;;5013713;28;20183;-76
2021/12/28 02:09:23;;;;;;;0.15;0.15;;;13.00;99.90;;;;;;5013419;28;20026;-75
2021/12/28 02:11:50;;;;;;;0.85;0.85;;;13.00;99.90;;;;;;5012731;28;20517;-75
2021/12/28 02:14:16;;;;;;;0.00;0.00;;;13.10;99.90;;;;;;5013577;28;20551;-75
2021/12/28 02:16:43;;;;;;;0.00;0.00;;;13.10;99.90;;;;;;5013574;28;20026;-75
2021/12/28 02:19:10;;;;;;;3.40;1.55;;;13.10;99.90;;;;;;5013382;28;20389;-76
2021/12/28 02:21:36;;;;;;;0.00;0.00;;;13.00;99.90;;;;;;5013094;28;20030;-75
2021/12/28 02:24:04;;;;;;;0.00;0.00;;;12.90;99.90;;;;;;5013329;28;20041;-75
2021/12/28 02:26:30;;;;;;;0.20;0.20;;;12.90;99.90;;;;;;5013344;28;20484;-75
2021/12/28 02:28:57;;;;;;;1.23;1.13;;;12.80;99.90;;;;;;5011410;28;20095;-76
2021/12/28 02:31:23;;;;;;;2.17;0.75;;;12.80;99.90;;;;;;5013294;28;20076;-76
2021/12/28 02:33:49;;;;;;;0.63;0.63;;;12.80;99.90;;;;;;5013199;28;20037;-76
2021/12/28 02:36:16;;;;;;;2.88;2.65;;;12.90;99.90;;;;;;5012988;28;20029;-75
2021/12/28 02:38:42;;;;;;;8.73;1.45;;;12.90;99.90;;;;;;5013190;28;20152;-75
2021/12/28 02:41:10;;;;;;;0.88;0.88;;;12.90;99.90;;;;;;5012985;28;20045;-75
2021/12/28 02:43:36;;;;;;;0.30;0.30;;;12.80;99.90;;;;;;5013023;28;20076;-75
2021/12/28 02:46:05;;;;;;;0.90;0.65;;;12.70;99.90;;;;;;5013080;28;20034;-75
2021/12/28 02:48:32;;;;;;;0.00;0.00;;;12.60;99.90;;;;;;5012590;28;20017;-75
2021/12/28 02:51:07;;;;;;;0.28;0.28;;;12.70;99.90;;;;;;5012954;28;20109;-75
2021/12/28 02:53:33;;;;;;;0.00;0.00;;;12.70;99.90;;;;;;5012591;28;20091;-75
2021/12/28 02:56:01;;;;;;;1.10;0.68;;;12.90;99.90;;;;;;5010403;28;20544;-75
2021/12/28 02:58:36;;;;;;;1.27;1.17;;;13.00;99.90;;;;;;5012917;28;20093;-75
2021/12/28 03:01:04;;;;;;;1.95;1.33;;;13.10;99.90;;;;;;5012797;28;20025;-76
2021/12/28 03:03:32;;;;;;;2.83;1.73;;;13.20;99.90;;;;;;5012678;28;20397;-75
2021/12/28 03:06:00;;;;;;;0.80;0.80;;;13.20;99.90;;;;;;5012632;28;20037;-76
2021/12/28 03:08:28;;;;;;;2.13;1.55;;;13.10;99.90;;;;;;5012663;28;20041;-75
2021/12/28 03:10:55;;;;;;;9.00;2.83;;;13.00;99.90;;;;;;5012703;28;20437;-75
2021/12/28 03:13:30;;;;;;;0.88;0.88;;;12.90;99.90;;;;;;5012551;28;20026;-76
2021/12/28 03:15:56;;;;;;;0.00;0.00;;;12.70;99.90;;;;;;5012673;28;20452;-75
2021/12/28 03:18:22;;;;;;;9.07;3.17;;;12.70;99.90;;;;;;5012355;28;20097;-75
2021/12/28 03:20:48;;;;;;;2.03;1.88;;;12.70;99.90;;;;;;5012366;28;20026;-75
2021/12/28 03:23:20;;;;;;;1.75;1.17;;;12.70;99.90;;;;;;5012540;28;20521;-75
2021/12/28 03:25:46;;;;;;;1.45;0.90;;;12.70;99.90;;;;;;5012455;28;20061;-75
2021/12/28 03:28:20;;;;;;;0.32;0.32;;;12.70;99.90;;;;;;5012257;28;20049;-76
2021/12/28 03:30:46;;;;;;;1.55;1.20;;;12.70;99.90;;;;;;5012684;28;20052;-75
2021/12/28 03:33:12;;;;;;;0.10;0.10;;;12.70;99.90;;;;;;5012371;28;20515;-75
2021/12/28 03:35:37;;;;;;;3.17;1.65;;;12.70;99.90;;;;;;5012259;28;20026;-75
2021/12/28 03:38:03;;;;;;;1.55;1.45;;;12.70;99.90;;;;;;5012441;28;20099;-75
2021/12/28 03:40:29;;;;;;;0.45;0.45;;;12.60;99.90;;;;;;5014377;28;20030;-76
2021/12/28 03:42:55;;;;;;;4.78;2.38;;;12.70;99.90;;;;;;5016441;28;20029;-75
2021/12/28 03:45:21;;;;;;;1.00;0.98;;;12.70;99.90;;;;;;5016352;28;20045;-75
2021/12/28 03:47:46;;;;;;;0.17;0.17;;;12.60;99.90;;;;;;5014908;28;20075;-75
2021/12/28 03:50:12;;;;;;;0.60;0.60;;;12.50;99.90;;;;;;5015365;28;20108;-75
2021/12/28 03:52:39;;;;;;;0.52;0.52;;;12.50;99.90;;;;;;5016046;28;20049;-76
2021/12/28 03:55:06;;;;;;;6.88;2.75;;;12.50;99.90;;;;;;5014664;28;20109;-76
2021/12/28 03:57:32;;;;;;;2.17;0.70;;;12.50;99.90;;;;;;5016229;28;20090;-75
2021/12/28 03:59:58;;;;;;;4.80;3.08;;;12.60;99.90;;;;;;5016357;28;20480;-75
2021/12/28 04:02:23;;;;;;;3.25;2.40;;;12.60;99.90;;;;;;5015754;28;20374;-75
2021/12/28 04:04:49;;;;;;;0.35;0.35;;;12.60;99.90;;;;;;5015811;28;20044;-75
2021/12/28 04:07:19;;;;;;;2.72;2.30;;;12.60;99.90;;;;;;5015591;28;20025;-77
2021/12/28 04:09:59;;;;;;;3.83;3.45;;;12.50;99.90;;;;;;5015803;28;20037;-75
2021/12/28 04:12:24;;;;;;;4.22;2.30;;;12.50;99.90;;;;;;5014797;28;20030;-75
2021/12/28 04:14:50;;;;;;;2.75;2.10;;;12.50;99.90;;;;;;5015244;28;20382;-76
2021/12/28 04:17:16;;;;;;;22.00;0.77;;;12.50;99.90;;;;;;5016424;28;20018;-75
2021/12/28 04:19:41;;;;;;;6.45;3.65;;;12.40;99.90;;;;;;5016459;28;20033;-77
2021/12/28 04:22:07;;;;;;;6.40;2.67;;;12.40;99.90;;;;;;5017528;28;20026;-76
2021/12/28 04:24:34;;;;;;;1.75;1.65;;;12.50;99.90;;;;;;5016405;28;20105;-76
2021/12/28 04:26:59;;;;;;;3.03;2.20;;;12.50;99.90;;;;;;5017050;28;20041;-77
2021/12/28 04:29:25;;;;;;;5.53;2.22;;;12.60;99.90;;;;;;5015664;28;20034;-76
2021/12/28 04:31:51;;;;;;;2.38;2.17;;;12.60;99.90;;;;;;5015612;28;20014;-77
2021/12/28 04:34:17;;;;;;;2.35;2.17;;;12.70;99.90;;;;;;5014290;28;20026;-78
2021/12/28 04:36:43;;;;;;;1.45;1.35;;;12.80;99.90;;;;;;5015540;28;20025;-76
2021/12/28 04:39:08;;;;;;;1.27;1.17;;;12.90;99.90;;;;;;5015610;28;20022;-75
2021/12/28 04:41:37;;;;;;;3.45;3.13;;;13.00;99.90;;;;;;5015400;28;20540;-76
2021/12/28 04:44:03;;;;;;;2.05;1.88;;;13.00;99.90;;;;;;5000861;28;20061;-77
2021/12/28 04:46:29;;;;;;;1.08;0.90;;;13.00;99.90;;;;;;4995855;28;20520;-77
2021/12/28 04:48:55;;;;;;;2.13;1.33;;;13.00;99.90;;;;;;5014138;28;20061;-77
2021/12/28 04:51:22;;;;;;;4.13;3.38;;;13.00;99.90;;;;;;5014580;28;20061;-78
2021/12/28 04:53:49;;;;;;;6.20;0.85;;;13.00;99.90;;;;;;5015266;28;20026;-76
2021/12/28 04:56:14;;;;;;;8.02;1.90;;;13.00;99.90;;;;;;5013588;28;20022;-77
2021/12/28 04:58:40;;;;;;;1.73;1.63;;;13.00;99.90;;;;;;5014973;28;20018;-78
2021/12/28 05:01:06;;;;;;;0.77;0.55;;;13.00;99.90;;;;;;5014889;28;20074;-78
2021/12/28 05:03:32;;;;;;;0.63;0.55;;;13.00;99.90;;;;;;5013647;28;20029;-76
2021/12/28 05:05:57;;;;;;;6.78;1.90;;;13.00;99.90;;;;;;5014757;28;20030;-78
2021/12/28 05:08:23;;;;;;;2.85;2.03;;;12.90;99.90;;;;;;5014742;28;20030;-76
2021/12/28 05:10:51;;;;;;;4.15;2.15;;;12.90;99.90;;;;;;5014727;28;20568;-78
2021/12/28 05:13:17;;;;;;;0.15;0.15;;;12.90;99.90;;;;;;5014345;28;20022;-78
2021/12/28 05:15:44;;;;;;;2.83;2.25;;;12.90;99.90;;;;;;5014566;28;20089;-76
2021/12/28 05:18:11;;;;;;;1.85;1.08;;;12.90;99.90;;;;;;5014464;28;20489;-77
2021/12/28 05:20:37;;;;;;;0.95;0.95;;;12.90;99.90;;;;;;5014495;28;20022;-78
2021/12/28 05:23:03;;;;;;;3.97;2.78;;;12.80;99.90;;;;;;5014279;28;20109;-77
2021/12/28 05:25:29;;;;;;;10.75;2.30;;;12.70;99.90;;;;;;5014274;28;20482;-78
2021/12/28 05:27:55;;;;;;;7.35;3.28;;;12.60;99.90;;;;;;5014422;28;20100;-76
2021/12/28 05:30:21;;;;;;;2.08;1.13;;;12.60;99.90;;;;;;5014386;28;20034;-76
2021/12/28 05:32:47;;;;;;;7.53;2.65;;;12.60;99.90;;;;;;5014378;28;20018;-76
2021/12/28 05:35:13;;;;;;;2.45;1.45;;;12.70;99.90;;;;;;5012783;28;20452;-76
2021/12/28 05:37:38;;;;;;;6.35;3.03;;;12.80;99.90;;;;;;5011339;28;20062;-78
2021/12/28 05:40:06;;;;;;;6.38;2.05;;;12.80;99.90;;;;;;5014250;28;20441;-77
2021/12/28 05:42:32;;;;;;;4.53;1.08;;;12.70;99.90;;;;;;5011986;28;20444;-77
2021/12/28 05:44:58;;;;;;;0.28;0.28;;;12.70;99.90;;;;;;4993398;28;20034;-77
2021/12/28 05:47:23;;;;;;;6.88;2.22;;;12.90;99.90;;;;;;5001065;28;20060;-76
2021/12/28 05:49:49;;;;;;;0.73;0.73;;;12.90;99.90;;;;;;5013377;28;20137;-78
2021/12/28 05:52:15;;;;;;;1.65;1.20;;;13.00;99.90;;;;;;5013759;28;20033;-77
2021/12/28 05:54:40;;;;;;;1.55;0.88;;;13.00;99.90;;;;;;5014054;28;20022;-76
2021/12/28 05:57:07;;;;;;;0.15;0.15;;;13.00;99.90;;;;;;5012179;28;20481;-76
2021/12/28 05:59:33;;;;;;;21.20;4.65;;;12.90;99.90;;;;;;5013458;28;20044;-76
2021/12/28 06:01:59;;;;;;;5.93;3.67;;;12.90;99.90;;;;;;5013445;28;20026;-76
2021/12/28 06:04:25;;;;;;;2.17;2.08;;;12.90;99.90;;;;;;5013322;28;20026;-78
2021/12/28 06:06:51;;;;;;;10.77;3.70;;;12.90;99.90;;;;;;5004290;28;20022;-78
2021/12/28 06:09:16;;;;;;;0.47;0.30;;;12.90;99.90;;;;;;5011465;28;20062;-78
2021/12/28 06:11:42;;;;;;;1.33;1.05;;;12.90;99.90;;;;;;5013633;28;20025;-76
2021/12/28 06:14:07;;;;;;;0.52;0.50;;;12.80;99.90;;;;;;5013433;28;20056;-77
2021/12/28 06:16:38;;;;;;;0.00;0.00;;;12.90;99.90;;;;;;5013390;28;20028;-79
2021/12/28 06:19:04;;;;;;;1.33;1.15;;;12.90;99.90;;;;;;5013508;28;20025;-78
2021/12/28 06:21:31;;;;;;;6.72;2.22;;;12.90;99.90;;;;;;5013160;28;20045;-79
2021/12/28 06:23:59;;;;;;;0.98;0.90;;;12.90;99.90;;;;;;5013565;28;20396;-77
2021/12/28 06:26:26;;;;;;;2.33;1.50;;;12.90;99.90;;;;;;5012906;28;20025;-76
2021/12/28 06:28:51;;;;;;;0.85;0.85;;;13.00;99.90;;;;;;5011943;28;20112;-78
2021/12/28 06:31:17;;;;;;;1.42;1.15;;;13.00;99.90;;;;;;5013509;28;20026;-78
2021/12/28 06:33:43;;;;;;;0.40;0.25;;;13.00;99.90;;;;;;5013054;28;20373;-76
2021/12/28 06:36:09;;;;;;;3.95;2.28;;;13.00;99.90;;;;;;5012740;28;20545;-76
2021/12/28 06:38:34;;;;;;;0.70;0.70;;;12.90;99.90;;;;;;5013231;28;20029;-79
2021/12/28 06:41:00;;;;;;;2.33;1.20;;;12.90;99.90;;;;;;5013230;28;20022;-79
2021/12/28 06:43:25;;;;;;;34.58;3.15;;;12.90;99.90;;;;;;5003540;28;20030;-78
2021/12/28 06:45:53;;;;;;;2.47;2.28;;;12.90;99.90;;;;;;4993514;28;20101;-78
2021/12/28 06:48:19;;;;;;;3.85;2.63;;;12.90;99.90;;;;;;5007109;28;20077;-75
2021/12/28 06:50:44;;;;;;;0.08;0.08;;;12.90;99.90;;;;;;5012447;28;20064;-76
2021/12/28 06:53:10;;;;;;;13.65;1.40;;;12.90;99.90;;;;;;5011423;28;20034;-76
2021/12/28 06:55:35;;;;;;;14.02;4.97;;;12.90;99.90;;;;;;5012814;28;20022;-78
2021/12/28 06:58:01;;;;;;;0.95;0.52;;;12.90;99.90;;;;;;5011612;28;20028;-74
2021/12/28 07:00:27;;;;;;;0.15;0.15;;;12.90;99.90;;;;;;5012942;28;20028;-76
2021/12/28 07:02:53;;;;;;;1.27;1.17;;;12.90;99.90;;;;;;5012809;28;20049;-76
2021/12/28 07:05:19;;;;;;;21.40;3.03;;;12.90;99.90;;;;;;5012454;28;20497;-75
2021/12/28 07:07:45;;;;;;;2.72;1.00;;;12.90;99.90;;;;;;5011392;28;20030;-75
2021/12/28 07:10:11;;;;;;;3.70;1.67;;;12.80;99.90;;;;;;5012268;28;20096;-78
2021/12/28 07:12:36;;;;;;;6.45;2.92;;;12.90;99.90;;;;;;5011282;28;20116;-76
2021/12/28 07:15:03;;;;;;;2.80;1.77;;;12.90;99.90;;;;;;5012445;28;20105;-75
2021/12/28 07:17:29;;;;;;;2.92;1.00;;;12.90;99.90;;;;;;5012457;28;20042;-76
2021/12/28 07:19:55;;;;;;;4.30;1.35;;;12.90;99.90;;;;;;5012839;28;20511;-78
2021/12/28 07:22:21;;;;;;;5.38;3.20;;;12.90;99.90;;;;;;5012393;28;20500;-76
2021/12/28 07:24:47;;;;;;;9.00;1.15;;;12.90;99.90;;;;;;5011989;28;20065;-75
2021/12/28 07:27:13;;;;;;;0.30;0.30;;;12.90;99.90;;;;;;5011933;28;20073;-76
2021/12/28 07:29:38;;;;;;;12.43;3.20;;;12.90;99.90;;;;;;5012435;28;20034;-76
2021/12/28 07:32:06;;;;;;;1.30;1.17;;;12.90;99.90;;;;;;5012182;28;20092;-75
2021/12/28 07:34:33;;;;;;;4.00;1.52;;;12.80;99.90;;;;;;5012644;28;20129;-78
2021/12/28 07:36:58;;;;;;;0.77;0.77;;;12.80;99.90;;;;;;5012344;28;20014;-76
2021/12/28 07:39:24;;;;;;;1.90;1.75;;;12.80;99.90;;;;;;5012265;28;20105;-76
2021/12/28 07:41:50;;;;;;;3.10;2.20;;;12.80;99.90;;;;;;5011311;28;20022;-75
2021/12/28 07:44:15;;;;;;;1.85;0.28;;;12.90;99.90;;;;;;4995836;28;20124;-73
2021/12/28 07:46:41;;;;;;;1.63;1.08;;;12.90;99.90;;;;;;4993238;28;20031;-79
2021/12/28 07:49:07;;;;;;;0.50;0.50;;;12.90;99.90;;;;;;5011538;28;20037;-78
2021/12/28 07:51:33;;;;;;;1.42;1.20;;;12.90;99.90;;;;;;5011723;28;20404;-75
2021/12/28 07:53:58;;;;;;;12.40;0.63;;;12.90;99.90;;;;;;5012081;28;20034;-76
2021/12/28 07:56:24;;;;;;;5.90;3.33;;;13.00;99.90;;;;;;5012129;28;20484;-77
2021/12/28 07:58:50;;;;;;;3.80;1.98;;;13.00;99.90;;;;;;5009045;28;20072;-76
2021/12/28 08:01:16;;;;;;;0.10;0.10;;;13.00;99.90;;;;;;5011452;28;20026;-79
2021/12/28 08:03:42;;;;;;;13.70;3.03;;;12.90;99.90;;;;;;5012201;28;20040;-76
2021/12/28 08:06:08;;;;;;;2.75;1.38;;;13.00;99.90;;;;;;5008871;28;20033;-76
2021/12/28 08:08:34;;;;;;;2.83;2.35;;;13.00;99.90;;;;;;5012159;28;20029;-77
2021/12/28 08:11:00;;;;;;;1.90;1.42;;;13.00;99.90;;;;;;5012189;28;20112;-76
2021/12/28 08:13:26;;;;;;;1.60;1.55;;;13.10;99.90;;;;;;5006186;28;20479;-79
2021/12/28 08:15:52;;;;;;;5.57;2.30;;;13.10;99.90;;;;;;5007917;28;20046;-78
2021/12/28 08:18:18;;;;;;;0.75;0.63;;;13.10;99.90;;;;;;5011451;28;20061;-76
2021/12/28 08:20:43;;;;;;;14.35;1.45;;;13.10;99.90;;;;;;5005549;28;20057;-76
2021/12/28 08:23:09;;;;;;;3.20;2.17;;;13.10;99.90;;;;;;5011593;28;20034;-76
2021/12/28 08:25:35;;;;;;;19.80;2.30;;;13.10;99.90;;;;;;5012100;28;20042;-79
2021/12/28 08:28:04;;;;;;;4.45;2.10;;;13.00;99.90;;;;;;5015571;28;20057;-79
2021/12/28 08:30:31;;;;;;;2.08;1.83;;;12.90;99.90;;;;;;5015829;28;20489;-76
2021/12/28 08:32:57;;;;;;;5.97;2.88;;;12.80;99.90;;;;;;5014188;28;20053;-77
2021/12/28 08:35:22;;;;;;;8.25;3.65;;;12.70;99.90;;;;;;5015161;28;20029;-79
2021/12/28 08:37:49;;;;;;;0.73;0.68;;;12.80;99.90;;;;;;5013938;28;20022;-77
2021/12/28 08:40:17;;;;;;;0.82;0.82;;;12.80;99.90;;;;;;5013995;28;20100;-79
2021/12/28 08:42:42;;;;;;;1.35;1.25;;;12.90;99.90;;;;;;5010623;28;20413;-76
2021/12/28 08:45:09;;;;;;;3.42;1.70;;;12.90;99.90;;;;;;4995658;28;20026;-76
2021/12/28 08:47:35;;;;;;;0.75;0.35;;;13.10;99.90;;;;;;5003681;28;20096;-76
2021/12/28 08:50:01;;;;;;;2.38;2.08;;;13.10;99.90;;;;;;5014644;28;20513;-76
2021/12/28 08:52:27;;;;;;;1.77;1.60;;;13.10;99.90;;;;;;5014321;28;20084;-79
2021/12/28 08:54:53;;;;;;;7.10;2.10;;;13.10;99.90;;;;;;5015076;28;20032;-77
2021/12/28 08:57:20;;;;;;;14.40;4.50;;;13.10;99.90;;;;;;5014994;28;20094;-77
2021/12/28 08:59:46;;;;;;;4.43;1.92;;;13.10;99.90;;;;;;5013356;28;20030;-77
2021/12/28 09:02:12;;;;;;;1.42;1.15;;;13.10;99.90;;;;;;5014790;28;20029;-77
2021/12/28 09:04:42;;;;;;;3.08;1.10;;;13.10;99.90;;;;;;5013883;28;20033;-79
2021/12/28 09:07:11;;;;;;;0.35;0.35;;;13.10;99.90;;;;;;5014393;28;20018;-78
2021/12/28 09:09:37;;;;;;;0.80;0.30;;;13.10;99.90;;;;;;5014528;28;20032;-77
2021/12/28 09:12:03;;;;;;;0.38;0.38;;;13.10;99.90;;;;;;5014734;28;20481;-77
2021/12/28 09:14:29;;;;;;;3.97;2.63;;;13.10;99.90;;;;;;5014820;28;20105;-76
2021/12/28 09:16:55;;;;;;;2.95;1.42;;;13.10;99.90;;;;;;5014399;28;20109;-78
2021/12/28 09:19:21;;;;;;;2.65;1.85;;;13.20;99.90;;;;;;5013818;28;20036;-79
2021/12/28 09:21:46;;;;;;;0.08;0.05;;;13.10;99.90;;;;;;5013906;28;20030;-77
2021/12/28 09:24:12;;;;;;;1.27;1.17;;;13.10;99.90;;;;;;5014529;28;20108;-77
2021/12/28 09:26:38;;;;;;;13.32;1.45;;;13.10;99.90;;;;;;5014443;28;20034;-76
2021/12/28 09:29:03;;;;;;;4.30;1.25;;;13.00;99.90;;;;;;5014436;28;20145;-78
2021/12/28 09:31:29;;;;;;;22.92;1.70;;;13.10;99.90;;;;;;5014579;28;20033;-79
2021/12/28 09:33:55;;;;;;;4.75;1.90;;;13.00;99.90;;;;;;5014238;28;20025;-79
2021/12/28 09:36:21;;;;;;;0.93;0.93;;;13.10;99.90;;;;;;5014026;28;20069;-78
2021/12/28 09:38:47;;;;;;;1.73;1.52;;;13.10;99.90;;;;;;5014547;28;20018;-77
2021/12/28 09:41:14;;;;;;;2.85;1.58;;;13.10;99.90;;;;;;5012957;28;20064;-78
2021/12/28 09:43:40;;;;;;;1.75;1.55;;;13.10;99.90;;;;;;5002959;28;20486;-79
2021/12/28 09:46:07;;;;;;;1.38;0.75;;;13.00;99.90;;;;;;4994500;28;20089;-79
2021/12/28 09:48:33;;;;;;;4.53;4.10;;;13.10;99.90;;;;;;5012515;28;20041;-77
2021/12/28 09:51:00;;;;;;;5.07;2.25;;;13.20;99.90;;;;;;5013730;28;20026;-78
2021/12/28 09:53:26;;;;;;;4.80;2.60;;;13.20;99.90;;;;;;5013686;28;20049;-79
2021/12/28 09:55:52;;;;;;;1.10;1.00;;;13.20;99.90;;;;;;5014217;28;20096;-77
2021/12/28 09:58:17;;;;;;;1.25;1.20;;;13.20;99.90;;;;;;5013254;28;20591;-80
2021/12/28 10:00:44;;;;;;;4.28;1.17;;;13.30;99.90;;;;;;5014093;28;20447;-76
2021/12/28 10:03:10;;;;;;;6.90;2.97;;;13.30;99.90;;;;;;5013801;28;20029;-79
2021/12/28 10:05:36;;;;;;;6.80;3.15;;;13.30;99.90;;;;;;5013466;28;20048;-78
2021/12/28 10:08:04;;;;;;;1.98;0.95;;;13.40;99.90;;;;;;5013387;28;20034;-77
2021/12/28 10:10:34;;;;;;;1.35;0.88;;;13.40;99.90;;;;;;5011884;28;20025;-77
2021/12/28 10:13:07;;;;;;;2.28;1.58;;;13.50;99.90;;;;;;5007715;28;20029;-77
2021/12/28 10:15:35;;;;;;;;;;;13.50;99.90;;;;;;5013897;28;20507;-77
2021/12/28 10:18:07;;;;;;;4.50;3.28;;;13.50;99.90;;;;;;5012544;28;19912;-78
2021/12/28 10:20:39;;;;;;;7.35;2.80;;;13.50;99.90;;;;;;5012044;28;20030;-77
2021/12/28 10:23:10;;;;;;;3.45;1.75;;;13.50;99.90;;;;;;5013418;28;20034;-79
2021/12/28 10:25:40;;;;;;;1.55;1.45;;;13.50;99.90;;;;;;5013249;28;20037;-79
2021/12/28 10:28:12;;;;;;;3.47;2.40;;;13.50;99.90;;;;;;5013207;28;20132;-77
2021/12/28 10:30:43;;;;;;;0.52;0.40;;;13.50;99.90;;;;;;5013405;28;20052;-76
2021/12/28 10:33:12;;;;;;;11.55;3.20;;;13.40;99.90;;;;;;5013111;28;20022;-78
2021/12/28 10:35:41;;;;;;;2.83;1.77;;;13.40;99.90;;;;;;5013006;28;20085;-79
2021/12/28 10:38:14;;;;;;;16.20;4.50;;;13.30;99.90;;;;;;5013047;28;20449;-79
2021/12/28 10:40:46;;;;;;;4.57;2.38;;;13.30;99.90;;;;;;5012632;28;20477;-78
2021/12/28 10:43:39;;;;;;;14.00;2.90;;;13.30;99.90;;;;;;5012895;28;20108;-77
2021/12/28 10:46:08;;;;;;;1.80;1.63;;;13.20;99.90;;;;;;5012122;28;20034;-77
2021/12/28 10:48:35;;;;;;;1.63;1.00;;;13.30;99.90;;;;;;5012173;28;20112;-79
2021/12/28 10:51:11;;;;;;;3.63;3.30;;;13.20;99.90;;;;;;5012932;28;20057;-79
2021/12/28 10:54:00;;;;;;;2.38;1.23;;;13.20;99.90;;;;;;5012689;28;20401;-79
2021/12/28 10:56:31;;;;;;;1.70;1.60;;;13.20;99.90;;;;;;5012925;28;20080;-77
2021/12/28 10:58:58;;;;;;;1.25;1.20;;;13.10;99.90;;;;;;5012081;28;20068;-77
2021/12/28 11:01:26;;;;;;;0.70;0.70;;;13.20;99.90;;;;;;5011639;28;20026;-80
2021/12/28 11:03:59;;;;;;;3.67;2.03;;;13.20;99.90;;;;;;5012850;28;20049;-79
2021/12/28 11:06:28;;;;;;;3.70;1.48;;;13.20;99.90;;;;;;5012470;28;20022;-79
2021/12/28 11:09:02;;;;;;;1.75;1.65;;;13.20;99.90;;;;;;5012558;28;20045;-79
2021/12/28 11:11:28;;;;;;;0.25;0.25;;;13.20;99.90;;;;;;5012688;28;20021;-82
2021/12/28 11:13:57;;;;;;;1.25;1.15;;;13.20;99.90;;;;;;5011503;28;20113;-81
2021/12/28 11:16:26;;;;;;;0.52;0.52;;;13.10;99.90;;;;;;5012103;28;20026;-83
2021/12/28 11:18:54;;;;;;;4.95;2.38;;;13.00;99.90;;;;;;5012582;28;20022;-83
2021/12/28 11:21:21;;;;;;;2.70;1.65;;;13.00;99.90;;;;;;5012151;28;20022;-81
2021/12/28 11:23:51;;;;;;;28.33;3.38;;;12.90;99.90;;;;;;5011396;28;20038;-82
2021/12/28 11:26:30;;;;;;;0.25;0.25;;;12.90;99.90;;;;;;5012243;28;20026;-82
2021/12/28 11:29:03;;;;;;;1.13;1.05;;;12.90;99.90;;;;;;5012461;28;20072;-77
2021/12/28 11:31:32;;;;;;;;;;;13.00;99.90;;;;;;5012232;28;20029;-78
2021/12/28 11:34:20;;;;;;;28.02;0.98;;;13.00;99.90;;;;;;5012539;28;19909;-81
2021/12/28 11:36:54;;;;;;;0.38;0.38;;;13.00;99.90;;;;;;5012381;28;20021;-78
2021/12/28 11:39:22;;;;;;;5.85;1.58;;;13.00;99.90;;;;;;5012529;28;20100;-80
2021/12/28 11:41:49;;;;;;;0.35;0.35;;;13.00;99.90;;;;;;5012599;28;20034;-80
2021/12/28 11:44:17;;;;;;;5.10;3.33;;;13.00;99.90;;;;;;5012523;28;20037;-80
2021/12/28 11:46:43;;;;;;;4.55;1.45;;;13.00;99.90;;;;;;5012223;28;20489;-80
2021/12/28 11:49:12;;;;;;;1.33;1.25;;;12.90;99.90;;;;;;5011293;28;20056;-80
2021/12/28 11:51:38;;;;;;;1.30;1.30;;;13.00;99.90;;;;;;5010944;28;20444;-79
2021/12/28 11:54:07;;;;;;;0.32;0.32;;;13.00;99.90;;;;;;5011354;28;20026;-79
2021/12/28 11:56:36;;;;;;;18.10;3.08;;;13.00;99.90;;;;;;5012328;28;20037;-80
2021/12/28 11:59:23;;;;;;;9.32;3.40;;;13.00;99.90;;;;;;5012259;28;20022;-79
2021/12/28 12:01:52;;;;;;;11.90;3.05;;;13.00;99.90;;;;;;5012920;28;20068;-78
2021/12/28 12:04:30;;;;;;;4.55;2.00;;;13.00;99.90;;;;;;5015620;28;20395;-80
2021/12/28 12:07:16;;;;;;;1.45;1.35;;;13.00;99.90;;;;;;5015943;28;20504;-78
2021/12/28 12:09:51;;;;;;;7.28;2.85;;;13.00;99.90;;;;;;5014556;28;20054;-80
2021/12/28 12:12:21;;;;;;;1.52;1.42;;;13.10;99.90;;;;;;5015801;28;20188;-79
2021/12/28 12:15:00;;;;;;;1.65;1.55;;;13.10;99.90;;;;;;5014441;28;20507;-79
2021/12/28 12:17:29;;;;;;;0.73;0.73;;;13.20;99.90;;;;;;5013581;28;20053;-79
2021/12/28 12:20:02;;;;;;;2.30;1.73;;;13.20;99.90;;;;;;5015685;28;20028;-79
2021/12/28 12:22:39;;;;;;;0.20;0.20;;;13.10;99.90;;;;;;5015306;28;20038;-80
2021/12/28 12:25:15;;;;;;;3.58;3.28;;;13.10;99.90;;;;;;5015360;28;20389;-79
2021/12/28 12:27:49;;;;;;;4.38;2.70;;;13.10;99.90;;;;;;4996161;28;20100;-80
2021/12/28 12:30:17;;;;;;;2.88;2.15;;;13.00;99.90;;;;;;5008260;28;20034;-82
2021/12/28 12:32:58;;;;;;;9.93;1.35;;;13.00;99.90;;;;;;5015571;28;20034;-78
2021/12/28 12:35:34;;;;;;;8.75;3.13;;;13.00;99.90;;;;;;5013677;28;20034;-78
2021/12/28 12:38:02;;;;;;;9.65;2.70;;;12.90;99.90;;;;;;5015744;28;20454;-83
2021/12/28 12:41:01;;;;;;;6.50;3.00;;;12.90;99.90;;;;;;5015543;28;20018;-81
2021/12/28 12:43:36;;;;;;;3.50;1.17;;;12.70;99.90;;;;;;5012629;28;20065;-81
2021/12/28 12:46:10;;;;;;;10.95;4.10;;;12.70;99.90;;;;;;4995642;28;20022;-79
2021/12/28 12:48:35;;;;;;;8.02;1.88;;;12.60;99.90;;;;;;5011551;28;20535;-79
2021/12/28 12:51:22;;;;;;;0.98;0.93;;;12.60;99.90;;;;;;5014739;28;20049;-80